sensor_id;sensor_type;location;lat;lon;timestamp;P1;P2;P0
46302;PMS7003;32029;51.358;5.628;2022-08-14T00:01:18;16.00;15.00;12.00
46302;PMS7003;32029;51.358;5.628;2022-08-14T00:03:45;20.33;16.00;12.00
46302;PMS7003;32029;51.358;5.628;2022-08-14T00:06:12;15.00;15.00;13.00
46302;PMS7003;32029;51.358;5.628;2022-08-14T00:08:39;17.00;16.00;11.00
46302;PMS7003;32029;51.358;5.628;2022-08-14T00:11:05;15.00;15.00;11.33
46302;PMS7003;32029;51.358;5.628;2022-08-14T00:13:32;16.50;15.00;12.00
46302;PMS7003;32029;51.358;5.628;2022-08-14T00:16:00;20.00;18.67;15.00
46302;PMS7003;32029;51.358;5.628;2022-08-14T00:18:27;19.33;17.33;13.00
46302;PMS7003;32029;51.358;5.628;2022-08-14T00:20:55;21.00;19.33;14.00
46302;PMS7003;32029;51.358;5.628;2022-08-14T00:23:23;19.75;18.25;15.00
46302;PMS7003;32029;51.358;5.628;2022-08-14T00:25:51;21.33;17.67;12.33
46302;PMS7003;32029;51.358;5.628;2022-08-14T00:28:19;19.00;18.00;15.00
46302;PMS7003;32029;51.358;5.628;2022-08-14T00:30:53;20.50;18.00;14.00
46302;PMS7003;32029;51.358;5.628;2022-08-14T00:33:24;16.50;14.00;12.00
46302;PMS7003;32029;51.358;5.628;2022-08-14T00:35:52;18.33;17.33;12.67
46302;PMS7003;32029;51.358;5.628;2022-08-14T00:38:19;18.50;16.00;13.50
46302;PMS7003;32029;51.358;5.628;2022-08-14T00:40:47;24.33;19.00;12.67
46302;PMS7003;32029;51.358;5.628;2022-08-14T00:43:14;18.00;18.00;14.67
46302;PMS7003;32029;51.358;5.628;2022-08-14T00:45:41;19.00;16.33;13.00
46302;PMS7003;32029;51.358;5.628;2022-08-14T00:48:08;22.00;19.00;15.00
46302;PMS7003;32029;51.358;5.628;2022-08-14T00:50:36;22.50;18.50;14.50
46302;PMS7003;32029;51.358;5.628;2022-08-14T00:53:03;20.00;17.50;12.50
46302;PMS7003;32029;51.358;5.628;2022-08-14T00:55:32;17.00;16.67;14.00
46302;PMS7003;32029;51.358;5.628;2022-08-14T00:58:02;21.67;19.67;16.33
46302;PMS7003;32029;51.358;5.628;2022-08-14T01:00:49;21.67;20.00;15.33
46302;PMS7003;32029;51.358;5.628;2022-08-14T01:03:20;21.00;20.00;14.00
46302;PMS7003;32029;51.358;5.628;2022-08-14T01:05:49;24.00;20.00;16.00
46302;PMS7003;32029;51.358;5.628;2022-08-14T01:08:27;21.00;19.00;14.00
46302;PMS7003;32029;51.358;5.628;2022-08-14T01:10:56;20.00;19.00;15.00
46302;PMS7003;32029;51.358;5.628;2022-08-14T01:13:29;24.50;19.00;15.00
46302;PMS7003;32029;51.358;5.628;2022-08-14T01:15:59;18.50;17.50;14.50
46302;PMS7003;32029;51.358;5.628;2022-08-14T01:18:29;22.50;18.50;14.00
46302;PMS7003;32029;51.358;5.628;2022-08-14T01:21:50;21.00;19.33;16.00
46302;PMS7003;32029;51.358;5.628;2022-08-14T01:24:11;21.33;16.67;14.00
46302;PMS7003;32029;51.358;5.628;2022-08-14T01:26:41;20.00;20.00;14.67
46302;PMS7003;32029;51.358;5.628;2022-08-14T01:29:08;17.50;16.00;13.50
46302;PMS7003;32029;51.358;5.628;2022-08-14T01:31:37;18.50;18.00;13.00
46302;PMS7003;32029;51.358;5.628;2022-08-14T01:34:12;22.50;20.00;15.00
46302;PMS7003;32029;51.358;5.628;2022-08-14T01:36:39;23.00;19.00;15.00
46302;PMS7003;32029;51.358;5.628;2022-08-14T01:39:10;16.33;15.33;11.67
46302;PMS7003;32029;51.358;5.628;2022-08-14T01:41:43;20.00;17.67;14.00
46302;PMS7003;32029;51.358;5.628;2022-08-14T01:44:14;21.00;18.00;14.00
46302;PMS7003;32029;51.358;5.628;2022-08-14T01:46:42;19.00;17.33;14.33
46302;PMS7003;32029;51.358;5.628;2022-08-14T01:49:11;18.00;17.00;14.00
46302;PMS7003;32029;51.358;5.628;2022-08-14T01:51:40;20.00;18.50;14.50
46302;PMS7003;32029;51.358;5.628;2022-08-14T01:54:11;18.33;17.00;12.00
46302;PMS7003;32029;51.358;5.628;2022-08-14T01:56:39;22.67;18.00;14.00
46302;PMS7003;32029;51.358;5.628;2022-08-14T01:59:20;22.67;19.33;15.67
46302;PMS7003;32029;51.358;5.628;2022-08-14T02:01:59;19.00;16.33;13.00
46302;PMS7003;32029;51.358;5.628;2022-08-14T02:04:30;19.67;18.00;14.33
46302;PMS7003;32029;51.358;5.628;2022-08-14T02:06:59;17.00;17.00;11.33
46302;PMS7003;32029;51.358;5.628;2022-08-14T02:09:28;21.33;16.67;12.00
46302;PMS7003;32029;51.358;5.628;2022-08-14T02:12:01;18.00;17.00;15.00
46302;PMS7003;32029;51.358;5.628;2022-08-14T02:14:29;20.00;16.67;12.67
46302;PMS7003;32029;51.358;5.628;2022-08-14T02:16:57;20.00;17.00;13.00
46302;PMS7003;32029;51.358;5.628;2022-08-14T02:19:26;24.33;20.67;14.33
46302;PMS7003;32029;51.358;5.628;2022-08-14T02:21:56;20.67;18.67;15.00
46302;PMS7003;32029;51.358;5.628;2022-08-14T02:24:25;22.00;21.00;16.00
46302;PMS7003;32029;51.358;5.628;2022-08-14T02:26:56;19.50;16.00;13.00
46302;PMS7003;32029;51.358;5.628;2022-08-14T02:29:26;23.33;19.33;14.67
46302;PMS7003;32029;51.358;5.628;2022-08-14T02:31:55;14.33;14.33;12.00
46302;PMS7003;32029;51.358;5.628;2022-08-14T02:34:26;15.00;15.00;12.00
46302;PMS7003;32029;51.358;5.628;2022-08-14T02:36:58;16.67;16.67;13.00
46302;PMS7003;32029;51.358;5.628;2022-08-14T02:39:28;19.00;18.00;13.50
46302;PMS7003;32029;51.358;5.628;2022-08-14T02:41:56;19.00;18.00;13.33
46302;PMS7003;32029;51.358;5.628;2022-08-14T02:44:23;20.67;18.00;12.33
46302;PMS7003;32029;51.358;5.628;2022-08-14T02:46:52;21.00;20.00;15.50
46302;PMS7003;32029;51.358;5.628;2022-08-14T02:49:21;20.00;20.00;14.00
46302;PMS7003;32029;51.358;5.628;2022-08-14T02:51:52;15.00;15.00;11.67
46302;PMS7003;32029;51.358;5.628;2022-08-14T02:54:20;17.50;17.50;12.50
46302;PMS7003;32029;51.358;5.628;2022-08-14T02:56:56;13.00;13.00;11.00
46302;PMS7003;32029;51.358;5.628;2022-08-14T02:59:23;17.33;14.00;11.00
46302;PMS7003;32029;51.358;5.628;2022-08-14T03:01:55;24.00;20.00;13.50
46302;PMS7003;32029;51.358;5.628;2022-08-14T03:04:23;18.50;16.00;13.00
46302;PMS7003;32029;51.358;5.628;2022-08-14T03:06:50;16.50;16.50;13.00
46302;PMS7003;32029;51.358;5.628;2022-08-14T03:09:17;18.50;17.00;13.00
46302;PMS7003;32029;51.358;5.628;2022-08-14T03:11:43;22.67;19.00;13.67
46302;PMS7003;32029;51.358;5.628;2022-08-14T03:14:10;19.50;18.50;14.50
46302;PMS7003;32029;51.358;5.628;2022-08-14T03:16:39;21.00;18.00;13.67
46302;PMS7003;32029;51.358;5.628;2022-08-14T03:19:07;24.00;21.00;14.00
46302;PMS7003;32029;51.358;5.628;2022-08-14T03:21:35;23.67;19.00;14.00
46302;PMS7003;32029;51.358;5.628;2022-08-14T03:24:03;23.50;18.00;15.00
46302;PMS7003;32029;51.358;5.628;2022-08-14T03:26:31;22.00;18.00;12.67
46302;PMS7003;32029;51.358;5.628;2022-08-14T03:28:58;16.00;16.00;13.33
46302;PMS7003;32029;51.358;5.628;2022-08-14T03:31:25;19.00;17.50;13.00
46302;PMS7003;32029;51.358;5.628;2022-08-14T03:33:52;19.00;16.00;12.00
46302;PMS7003;32029;51.358;5.628;2022-08-14T03:36:19;19.00;19.00;15.00
46302;PMS7003;32029;51.358;5.628;2022-08-14T03:38:48;19.50;19.00;14.50
46302;PMS7003;32029;51.358;5.628;2022-08-14T03:41:20;26.00;21.67;16.00
46302;PMS7003;32029;51.358;5.628;2022-08-14T03:43:55;18.00;17.67;14.33
46302;PMS7003;32029;51.358;5.628;2022-08-14T03:46:24;22.33;19.33;15.00
46302;PMS7003;32029;51.358;5.628;2022-08-14T03:48:53;21.00;17.50;14.50
46302;PMS7003;32029;51.358;5.628;2022-08-14T03:51:20;25.00;21.00;15.00
46302;PMS7003;32029;51.358;5.628;2022-08-14T03:53:52;18.50;18.50;15.00
46302;PMS7003;32029;51.358;5.628;2022-08-14T03:56:20;22.50;22.50;15.50
46302;PMS7003;32029;51.358;5.628;2022-08-14T03:58:47;19.50;18.50;14.50
46302;PMS7003;32029;51.358;5.628;2022-08-14T04:01:17;22.00;22.00;16.50
46302;PMS7003;32029;51.358;5.628;2022-08-14T04:03:47;23.00;21.67;15.33
46302;PMS7003;32029;51.358;5.628;2022-08-14T04:06:16;23.67;19.00;15.00
46302;PMS7003;32029;51.358;5.628;2022-08-14T04:08:48;21.00;21.00;16.00
46302;PMS7003;32029;51.358;5.628;2022-08-14T04:11:17;26.50;23.00;17.00
46302;PMS7003;32029;51.358;5.628;2022-08-14T04:13:45;24.50;19.50;14.50
46302;PMS7003;32029;51.358;5.628;2022-08-14T04:16:16;13.67;13.67;10.00
46302;PMS7003;32029;51.358;5.628;2022-08-14T04:18:50;25.00;22.00;15.50
46302;PMS7003;32029;51.358;5.628;2022-08-14T04:21:20;22.00;21.00;16.50
46302;PMS7003;32029;51.358;5.628;2022-08-14T04:23:50;19.00;16.33;14.00
46302;PMS7003;32029;51.358;5.628;2022-08-14T04:26:19;31.00;22.33;15.00
46302;PMS7003;32029;51.358;5.628;2022-08-14T04:28:48;21.50;19.50;15.00
46302;PMS7003;32029;51.358;5.628;2022-08-14T04:31:17;23.00;21.00;15.00
46302;PMS7003;32029;51.358;5.628;2022-08-14T04:33:45;21.67;19.33;16.00
46302;PMS7003;32029;51.358;5.628;2022-08-14T04:36:13;21.50;21.50;15.00
46302;PMS7003;32029;51.358;5.628;2022-08-14T04:38:41;29.67;22.67;17.00
46302;PMS7003;32029;51.358;5.628;2022-08-14T04:41:28;24.00;22.00;17.00
46302;PMS7003;32029;51.358;5.628;2022-08-14T04:44:14;24.00;22.00;16.67
46302;PMS7003;32029;51.358;5.628;2022-08-14T04:46:42;28.67;22.67;16.67
46302;PMS7003;32029;51.358;5.628;2022-08-14T04:49:30;24.00;23.00;16.67
46302;PMS7003;32029;51.358;5.628;2022-08-14T04:51:59;27.00;23.00;18.33
46302;PMS7003;32029;51.358;5.628;2022-08-14T04:54:26;20.00;18.50;16.00
46302;PMS7003;32029;51.358;5.628;2022-08-14T04:56:53;23.67;22.67;16.67
46302;PMS7003;32029;51.358;5.628;2022-08-14T04:59:22;27.67;26.00;16.00
46302;PMS7003;32029;51.358;5.628;2022-08-14T05:01:49;24.00;23.50;15.00
46302;PMS7003;32029;51.358;5.628;2022-08-14T05:04:18;24.50;23.00;17.00
46302;PMS7003;32029;51.358;5.628;2022-08-14T05:06:48;22.33;20.67;17.00
46302;PMS7003;32029;51.358;5.628;2022-08-14T05:09:16;23.33;23.33;17.00
46302;PMS7003;32029;51.358;5.628;2022-08-14T05:11:44;27.33;26.33;17.33
46302;PMS7003;32029;51.358;5.628;2022-08-14T05:14:14;25.33;23.33;18.33
46302;PMS7003;32029;51.358;5.628;2022-08-14T05:16:42;29.00;25.67;18.00
46302;PMS7003;32029;51.358;5.628;2022-08-14T05:19:10;23.00;21.67;15.33
46302;PMS7003;32029;51.358;5.628;2022-08-14T05:21:40;32.33;24.67;17.33
46302;PMS7003;32029;51.358;5.628;2022-08-14T05:24:07;23.00;19.00;15.00
46302;PMS7003;32029;51.358;5.628;2022-08-14T05:26:37;26.67;21.67;17.00
46302;PMS7003;32029;51.358;5.628;2022-08-14T05:29:12;28.33;23.67;17.00
46302;PMS7003;32029;51.358;5.628;2022-08-14T05:31:39;26.00;23.00;18.67
46302;PMS7003;32029;51.358;5.628;2022-08-14T05:34:08;24.33;24.33;18.67
46302;PMS7003;32029;51.358;5.628;2022-08-14T05:36:36;28.00;23.67;16.67
46302;PMS7003;32029;51.358;5.628;2022-08-14T05:39:04;25.33;23.00;16.67
46302;PMS7003;32029;51.358;5.628;2022-08-14T05:41:32;24.00;20.50;15.00
46302;PMS7003;32029;51.358;5.628;2022-08-14T05:44:00;27.50;24.50;18.00
46302;PMS7003;32029;51.358;5.628;2022-08-14T05:46:28;23.67;23.33;16.33
46302;PMS7003;32029;51.358;5.628;2022-08-14T05:48:57;23.67;22.67;15.33
46302;PMS7003;32029;51.358;5.628;2022-08-14T05:51:25;24.33;22.33;16.67
46302;PMS7003;32029;51.358;5.628;2022-08-14T05:53:54;23.00;19.50;16.00
46302;PMS7003;32029;51.358;5.628;2022-08-14T05:56:22;20.00;20.00;14.50
46302;PMS7003;32029;51.358;5.628;2022-08-14T05:58:50;24.50;23.50;17.00
46302;PMS7003;32029;51.358;5.628;2022-08-14T06:01:18;25.00;22.33;16.00
46302;PMS7003;32029;51.358;5.628;2022-08-14T06:03:46;23.67;21.00;17.00
46302;PMS7003;32029;51.358;5.628;2022-08-14T06:06:14;21.00;18.67;14.00
46302;PMS7003;32029;51.358;5.628;2022-08-14T06:08:41;20.50;20.00;16.00
46302;PMS7003;32029;51.358;5.628;2022-08-14T06:11:09;28.00;25.33;17.00
46302;PMS7003;32029;51.358;5.628;2022-08-14T06:13:39;22.00;20.33;16.00
46302;PMS7003;32029;51.358;5.628;2022-08-14T06:16:09;25.33;21.33;15.67
46302;PMS7003;32029;51.358;5.628;2022-08-14T06:18:37;24.67;23.33;17.00
46302;PMS7003;32029;51.358;5.628;2022-08-14T06:21:05;27.67;23.67;16.00
46302;PMS7003;32029;51.358;5.628;2022-08-14T06:23:32;19.67;19.67;16.00
46302;PMS7003;32029;51.358;5.628;2022-08-14T06:26:00;26.67;24.33;18.00
46302;PMS7003;32029;51.358;5.628;2022-08-14T06:28:28;27.00;22.67;16.33
46302;PMS7003;32029;51.358;5.628;2022-08-14T06:30:55;29.00;24.67;19.00
46302;PMS7003;32029;51.358;5.628;2022-08-14T06:33:23;26.33;25.33;19.00
46302;PMS7003;32029;51.358;5.628;2022-08-14T06:35:51;25.00;23.33;17.00
46302;PMS7003;32029;51.358;5.628;2022-08-14T06:38:20;29.00;25.33;16.00
46302;PMS7003;32029;51.358;5.628;2022-08-14T06:40:48;25.67;21.67;16.00
46302;PMS7003;32029;51.358;5.628;2022-08-14T06:43:17;19.33;17.00;14.33
46302;PMS7003;32029;51.358;5.628;2022-08-14T06:45:46;21.00;20.00;14.00
46302;PMS7003;32029;51.358;5.628;2022-08-14T06:48:16;23.00;22.00;15.50
46302;PMS7003;32029;51.358;5.628;2022-08-14T06:50:46;23.67;19.33;14.67
46302;PMS7003;32029;51.358;5.628;2022-08-14T06:53:14;26.33;18.33;13.67
46302;PMS7003;32029;51.358;5.628;2022-08-14T06:55:45;21.67;18.67;13.00
46302;PMS7003;32029;51.358;5.628;2022-08-14T06:58:15;17.33;16.67;13.67
46302;PMS7003;32029;51.358;5.628;2022-08-14T07:00:43;18.00;18.00;13.50
46302;PMS7003;32029;51.358;5.628;2022-08-14T07:03:31;21.00;18.50;13.00
46302;PMS7003;32029;51.358;5.628;2022-08-14T07:06:18;21.67;18.33;13.33
46302;PMS7003;32029;51.358;5.628;2022-08-14T07:08:44;18.33;17.67;13.00
46302;PMS7003;32029;51.358;5.628;2022-08-14T07:11:11;18.00;15.33;12.00
46302;PMS7003;32029;51.358;5.628;2022-08-14T07:13:39;21.00;19.00;13.50
46302;PMS7003;32029;51.358;5.628;2022-08-14T07:16:06;19.00;19.00;14.50
46302;PMS7003;32029;51.358;5.628;2022-08-14T07:18:34;17.33;14.67;11.00
46302;PMS7003;32029;51.358;5.628;2022-08-14T07:21:04;18.00;18.00;13.00
46302;PMS7003;32029;51.358;5.628;2022-08-14T07:23:32;19.33;18.00;13.00
46302;PMS7003;32029;51.358;5.628;2022-08-14T07:26:00;15.00;15.00;13.00
46302;PMS7003;32029;51.358;5.628;2022-08-14T07:28:32;20.33;16.00;12.67
46302;PMS7003;32029;51.358;5.628;2022-08-14T07:31:02;22.67;18.00;11.00
46302;PMS7003;32029;51.358;5.628;2022-08-14T07:33:41;14.67;14.67;10.67
46302;PMS7003;32029;51.358;5.628;2022-08-14T07:36:11;20.00;16.00;12.50
46302;PMS7003;32029;51.358;5.628;2022-08-14T07:38:40;20.67;16.67;12.00
46302;PMS7003;32029;51.358;5.628;2022-08-14T07:41:08;17.00;15.67;12.67
46302;PMS7003;32029;51.358;5.628;2022-08-14T07:43:36;17.00;14.50;11.00
46302;PMS7003;32029;51.358;5.628;2022-08-14T07:46:03;17.50;15.00;12.00
46302;PMS7003;32029;51.358;5.628;2022-08-14T07:48:31;14.00;11.33;8.00
46302;PMS7003;32029;51.358;5.628;2022-08-14T07:51:04;15.00;13.00;11.00
46302;PMS7003;32029;51.358;5.628;2022-08-14T07:53:31;16.00;14.67;11.67
46302;PMS7003;32029;51.358;5.628;2022-08-14T07:55:58;19.00;15.00;12.00
46302;PMS7003;32029;51.358;5.628;2022-08-14T07:58:25;14.67;13.67;10.00
46302;PMS7003;32029;51.358;5.628;2022-08-14T08:00:53;16.00;13.33;10.00
46302;PMS7003;32029;51.358;5.628;2022-08-14T08:03:22;14.00;12.00;10.67
46302;PMS7003;32029;51.358;5.628;2022-08-14T08:05:52;15.00;12.00;9.33
46302;PMS7003;32029;51.358;5.628;2022-08-14T08:08:19;15.00;13.67;10.00
46302;PMS7003;32029;51.358;5.628;2022-08-14T08:10:46;14.67;12.67;10.67
46302;PMS7003;32029;51.358;5.628;2022-08-14T08:13:16;14.33;14.33;11.00
46302;PMS7003;32029;51.358;5.628;2022-08-14T08:15:48;11.60;11.00;9.00
46302;PMS7003;32029;51.358;5.628;2022-08-14T08:18:20;18.67;16.00;13.00
46302;PMS7003;32029;51.358;5.628;2022-08-14T08:20:48;15.33;14.33;11.00
46302;PMS7003;32029;51.358;5.628;2022-08-14T08:23:17;13.00;12.67;10.67
46302;PMS7003;32029;51.358;5.628;2022-08-14T08:25:45;12.67;12.67;10.00
46302;PMS7003;32029;51.358;5.628;2022-08-14T08:28:21;15.00;14.00;10.33
46302;PMS7003;32029;51.358;5.628;2022-08-14T08:33:26;16.67;14.67;10.33
46302;PMS7003;32029;51.358;5.628;2022-08-14T08:35:58;18.67;16.67;13.00
46302;PMS7003;32029;51.358;5.628;2022-08-14T08:38:26;16.00;15.00;10.67
46302;PMS7003;32029;51.358;5.628;2022-08-14T08:40:54;13.00;13.00;8.67
46302;PMS7003;32029;51.358;5.628;2022-08-14T08:43:27;13.00;12.00;10.33
46302;PMS7003;32029;51.358;5.628;2022-08-14T08:46:11;15.00;13.67;10.00
46302;PMS7003;32029;51.358;5.628;2022-08-14T08:48:47;14.33;13.33;11.33
46302;PMS7003;32029;51.358;5.628;2022-08-14T08:56:33;11.67;11.67;9.33
46302;PMS7003;32029;51.358;5.628;2022-08-14T08:59:15;16.33;15.33;11.00
46302;PMS7003;32029;51.358;5.628;2022-08-14T09:01:53;16.33;14.33;10.67
46302;PMS7003;32029;51.358;5.628;2022-08-14T09:04:24;15.00;13.67;10.67
46302;PMS7003;32029;51.358;5.628;2022-08-14T09:06:53;12.00;11.67;9.00
46302;PMS7003;32029;51.358;5.628;2022-08-14T09:09:25;15.00;14.00;9.33
46302;PMS7003;32029;51.358;5.628;2022-08-14T09:11:54;14.33;13.00;11.00
46302;PMS7003;32029;51.358;5.628;2022-08-14T09:14:24;12.33;12.00;9.33
46302;PMS7003;32029;51.358;5.628;2022-08-14T09:16:55;16.00;13.33;10.67
46302;PMS7003;32029;51.358;5.628;2022-08-14T09:19:25;12.67;10.00;7.67
46302;PMS7003;32029;51.358;5.628;2022-08-14T09:21:52;12.33;12.00;9.00
46302;PMS7003;32029;51.358;5.628;2022-08-14T09:24:20;16.67;12.67;10.00
46302;PMS7003;32029;51.358;5.628;2022-08-14T09:26:47;14.33;12.33;10.00
46302;PMS7003;32029;51.358;5.628;2022-08-14T09:29:15;15.00;14.67;10.67
46302;PMS7003;32029;51.358;5.628;2022-08-14T09:31:43;13.00;13.00;10.33
46302;PMS7003;32029;51.358;5.628;2022-08-14T09:45:47;9.33;9.33;6.67
46302;PMS7003;32029;51.358;5.628;2022-08-14T09:48:16;14.00;12.67;9.67
46302;PMS7003;32029;51.358;5.628;2022-08-14T09:50:46;10.33;10.00;8.00
46302;PMS7003;32029;51.358;5.628;2022-08-14T09:56:00;10.33;10.33;8.67
46302;PMS7003;32029;51.358;5.628;2022-08-14T10:01:13;10.33;10.33;9.33
46302;PMS7003;32029;51.358;5.628;2022-08-14T10:03:51;10.00;10.00;8.67
46302;PMS7003;32029;51.358;5.628;2022-08-14T10:06:21;11.67;10.67;8.67
46302;PMS7003;32029;51.358;5.628;2022-08-14T10:08:58;14.67;12.33;8.67
46302;PMS7003;32029;51.358;5.628;2022-08-14T10:11:29;9.00;7.33;6.67
46302;PMS7003;32029;51.358;5.628;2022-08-14T10:14:13;12.33;11.00;9.00
46302;PMS7003;32029;51.358;5.628;2022-08-14T10:16:47;13.00;11.00;9.33
46302;PMS7003;32029;51.358;5.628;2022-08-14T10:19:18;13.00;13.00;11.00
46302;PMS7003;32029;51.358;5.628;2022-08-14T10:21:55;11.67;10.00;9.00
46302;PMS7003;32029;51.358;5.628;2022-08-14T10:24:28;7.33;7.33;6.00
46302;PMS7003;32029;51.358;5.628;2022-08-14T10:26:58;12.00;11.00;8.33
46302;PMS7003;32029;51.358;5.628;2022-08-14T10:30:11;14.00;12.67;8.67
46302;PMS7003;32029;51.358;5.628;2022-08-14T10:32:21;12.00;11.00;8.00
46302;PMS7003;32029;51.358;5.628;2022-08-14T10:34:48;9.33;8.00;7.00
46302;PMS7003;32029;51.358;5.628;2022-08-14T10:37:16;10.67;10.67;8.67
46302;PMS7003;32029;51.358;5.628;2022-08-14T10:40:00;10.00;10.00;7.00
46302;PMS7003;32029;51.358;5.628;2022-08-14T10:42:35;14.33;12.00;10.00
46302;PMS7003;32029;51.358;5.628;2022-08-14T10:45:19;13.00;13.00;9.67
46302;PMS7003;32029;51.358;5.628;2022-08-14T10:47:48;11.00;9.33;8.33
46302;PMS7003;32029;51.358;5.628;2022-08-14T10:50:33;10.67;10.67;7.67
46302;PMS7003;32029;51.358;5.628;2022-08-14T10:53:02;9.67;7.33;6.67
46302;PMS7003;32029;51.358;5.628;2022-08-14T10:55:33;12.00;11.00;9.00
46302;PMS7003;32029;51.358;5.628;2022-08-14T10:58:05;11.00;9.33;7.33
46302;PMS7003;32029;51.358;5.628;2022-08-14T11:00:37;13.00;10.33;8.00
46302;PMS7003;32029;51.358;5.628;2022-08-14T11:03:09;11.33;10.00;8.33
46302;PMS7003;32029;51.358;5.628;2022-08-14T11:05:43;11.67;10.33;8.00
46302;PMS7003;32029;51.358;5.628;2022-08-14T11:08:12;12.00;11.67;8.67
46302;PMS7003;32029;51.358;5.628;2022-08-14T11:10:45;14.00;13.00;10.00
46302;PMS7003;32029;51.358;5.628;2022-08-14T11:13:24;10.67;9.33;7.67
46302;PMS7003;32029;51.358;5.628;2022-08-14T11:15:57;9.00;9.00;7.00
46302;PMS7003;32029;51.358;5.628;2022-08-14T11:18:29;10.40;9.40;7.00
46302;PMS7003;32029;51.358;5.628;2022-08-14T11:20:57;8.67;7.33;5.33
46302;PMS7003;32029;51.358;5.628;2022-08-14T11:23:26;12.67;10.67;8.00
46302;PMS7003;32029;51.358;5.628;2022-08-14T11:25:59;7.00;7.00;6.00
46302;PMS7003;32029;51.358;5.628;2022-08-14T11:28:32;9.80;8.40;6.80
46302;PMS7003;32029;51.358;5.628;2022-08-14T11:31:01;10.33;10.00;7.67
46302;PMS7003;32029;51.358;5.628;2022-08-14T11:33:29;8.33;8.33;7.00
46302;PMS7003;32029;51.358;5.628;2022-08-14T11:35:57;11.33;8.67;6.67
46302;PMS7003;32029;51.358;5.628;2022-08-14T11:38:27;9.00;8.60;7.00
46302;PMS7003;32029;51.358;5.628;2022-08-14T11:41:02;8.60;8.20;6.60
46302;PMS7003;32029;51.358;5.628;2022-08-14T11:43:30;9.33;9.00;7.00
46302;PMS7003;32029;51.358;5.628;2022-08-14T11:45:58;10.80;8.60;7.20
46302;PMS7003;32029;51.358;5.628;2022-08-14T11:48:26;11.67;10.67;9.33
46302;PMS7003;32029;51.358;5.628;2022-08-14T11:50:56;11.83;10.00;8.83
46302;PMS7003;32029;51.358;5.628;2022-08-14T11:53:27;8.60;6.60;4.80
46302;PMS7003;32029;51.358;5.628;2022-08-14T11:55:57;9.00;9.00;7.00
46302;PMS7003;32029;51.358;5.628;2022-08-14T11:58:29;9.67;8.00;6.67
46302;PMS7003;32029;51.358;5.628;2022-08-14T12:00:59;11.00;11.00;9.33
46302;PMS7003;32029;51.358;5.628;2022-08-14T12:03:39;8.67;7.33;7.33
46302;PMS7003;32029;51.358;5.628;2022-08-14T12:06:14;11.67;9.67;7.33
46302;PMS7003;32029;51.358;5.628;2022-08-14T12:08:43;8.67;7.33;6.33
46302;PMS7003;32029;51.358;5.628;2022-08-14T12:11:12;8.00;7.67;7.67
46302;PMS7003;32029;51.358;5.628;2022-08-14T12:13:41;10.20;10.20;8.40
46302;PMS7003;32029;51.358;5.628;2022-08-14T12:16:11;9.33;8.67;6.33
46302;PMS7003;32029;51.358;5.628;2022-08-14T12:18:39;9.00;7.67;7.00
46302;PMS7003;32029;51.358;5.628;2022-08-14T12:21:17;11.67;10.00;7.00
46302;PMS7003;32029;51.358;5.628;2022-08-14T12:24:02;8.67;7.00;6.33
46302;PMS7003;32029;51.358;5.628;2022-08-14T12:26:31;10.00;9.00;7.67
46302;PMS7003;32029;51.358;5.628;2022-08-14T12:31:34;9.00;8.67;7.00
46302;PMS7003;32029;51.358;5.628;2022-08-14T12:34:05;10.33;10.33;8.33
46302;PMS7003;32029;51.358;5.628;2022-08-14T12:36:34;8.00;8.00;7.00
46302;PMS7003;32029;51.358;5.628;2022-08-14T12:39:20;6.00;6.00;6.00
46302;PMS7003;32029;51.358;5.628;2022-08-14T12:41:50;10.00;10.00;8.80
46302;PMS7003;32029;51.358;5.628;2022-08-14T12:44:28;10.00;9.00;8.00
46302;PMS7003;32029;51.358;5.628;2022-08-14T12:47:11;8.20;8.00;6.20
46302;PMS7003;32029;51.358;5.628;2022-08-14T12:49:49;6.80;6.60;4.60
46302;PMS7003;32029;51.358;5.628;2022-08-14T12:52:27;8.20;8.20;6.60
46302;PMS7003;32029;51.358;5.628;2022-08-14T12:55:06;9.20;7.40;6.60
46302;PMS7003;32029;51.358;5.628;2022-08-14T12:57:40;9.60;9.00;7.00
46302;PMS7003;32029;51.358;5.628;2022-08-14T13:00:19;7.67;7.67;6.67
46302;PMS7003;32029;51.358;5.628;2022-08-14T13:02:48;9.00;9.00;7.00
46302;PMS7003;32029;51.358;5.628;2022-08-14T13:05:19;10.80;9.60;7.60
46302;PMS7003;32029;51.358;5.628;2022-08-14T13:07:49;12.33;10.67;8.00
46302;PMS7003;32029;51.358;5.628;2022-08-14T13:10:18;7.67;7.33;6.33
46302;PMS7003;32029;51.358;5.628;2022-08-14T13:12:47;8.00;7.67;6.67
46302;PMS7003;32029;51.358;5.628;2022-08-14T13:15:15;9.33;7.33;6.33
46302;PMS7003;32029;51.358;5.628;2022-08-14T13:17:48;10.80;9.00;7.40
46302;PMS7003;32029;51.358;5.628;2022-08-14T13:20:17;9.33;9.00;7.33
46302;PMS7003;32029;51.358;5.628;2022-08-14T13:22:47;7.67;7.67;6.33
46302;PMS7003;32029;51.358;5.628;2022-08-14T13:25:15;10.00;9.33;7.00
46302;PMS7003;32029;51.358;5.628;2022-08-14T13:27:47;9.80;9.00;7.00
46302;PMS7003;32029;51.358;5.628;2022-08-14T13:30:17;7.80;7.00;7.00
46302;PMS7003;32029;51.358;5.628;2022-08-14T13:32:45;10.33;10.00;7.33
46302;PMS7003;32029;51.358;5.628;2022-08-14T13:35:14;10.00;9.33;7.33
46302;PMS7003;32029;51.358;5.628;2022-08-14T13:37:42;8.67;6.67;6.00
46302;PMS7003;32029;51.358;5.628;2022-08-14T13:40:11;11.00;9.67;6.67
46302;PMS7003;32029;51.358;5.628;2022-08-14T13:42:41;8.33;8.33;7.00
46302;PMS7003;32029;51.358;5.628;2022-08-14T13:45:10;11.33;9.33;7.00
46302;PMS7003;32029;51.358;5.628;2022-08-14T13:47:38;11.00;9.33;8.00
46302;PMS7003;32029;51.358;5.628;2022-08-14T13:50:05;7.00;7.00;6.00
46302;PMS7003;32029;51.358;5.628;2022-08-14T13:52:46;10.67;9.67;7.67
46302;PMS7003;32029;51.358;5.628;2022-08-14T13:55:23;10.67;7.33;6.33
46302;PMS7003;32029;51.358;5.628;2022-08-14T13:57:53;12.00;8.33;7.00
46302;PMS7003;32029;51.358;5.628;2022-08-14T14:00:25;8.40;8.00;6.60
46302;PMS7003;32029;51.358;5.628;2022-08-14T14:02:53;9.00;7.60;6.40
46302;PMS7003;32029;51.358;5.628;2022-08-14T14:05:21;7.00;7.00;6.33
46302;PMS7003;32029;51.358;5.628;2022-08-14T14:07:50;8.67;7.67;6.00
46302;PMS7003;32029;51.358;5.628;2022-08-14T14:10:18;7.67;7.67;6.33
46302;PMS7003;32029;51.358;5.628;2022-08-14T14:12:48;6.20;6.20;5.00
46302;PMS7003;32029;51.358;5.628;2022-08-14T14:15:17;9.67;9.33;7.67
46302;PMS7003;32029;51.358;5.628;2022-08-14T14:17:47;5.00;5.00;5.00
46302;PMS7003;32029;51.358;5.628;2022-08-14T14:20:15;9.33;9.33;8.00
46302;PMS7003;32029;51.358;5.628;2022-08-14T14:22:45;7.00;7.00;6.20
46302;PMS7003;32029;51.358;5.628;2022-08-14T14:25:14;9.00;9.00;7.00
46302;PMS7003;32029;51.358;5.628;2022-08-14T14:27:44;10.67;10.67;8.00
46302;PMS7003;32029;51.358;5.628;2022-08-14T14:30:15;9.60;8.40;7.60
46302;PMS7003;32029;51.358;5.628;2022-08-14T14:32:46;9.80;8.80;6.40
46302;PMS7003;32029;51.358;5.628;2022-08-14T14:35:14;11.33;8.33;7.00
46302;PMS7003;32029;51.358;5.628;2022-08-14T14:37:45;9.00;9.00;7.00
46302;PMS7003;32029;51.358;5.628;2022-08-14T14:40:12;9.67;9.67;8.00